sensor_id;sensor_type;location;lat;lon;timestamp;P1;durP1;ratioP1;P2;durP2;ratioP2
9518;SDS011;4797;50.220;8.782;2022-07-29T00:01:09;42.90;;;26.13;;
9518;SDS011;4797;50.220;8.782;2022-07-29T00:03:44;45.23;;;26.43;;
9518;SDS011;4797;50.220;8.782;2022-07-29T00:06:13;45.90;;;26.43;;
9518;SDS011;4797;50.220;8.782;2022-07-29T00:08:41;42.67;;;26.03;;
9518;SDS011;4797;50.220;8.782;2022-07-29T00:11:11;49.40;;;26.33;;
9518;SDS011;4797;50.220;8.782;2022-07-29T00:13:39;46.63;;;27.73;;
9518;SDS011;4797;50.220;8.782;2022-07-29T00:16:12;46.40;;;26.13;;
9518;SDS011;4797;50.220;8.782;2022-07-29T00:18:41;43.33;;;24.90;;
9518;SDS011;4797;50.220;8.782;2022-07-29T00:21:09;45.83;;;27.50;;
9518;SDS011;4797;50.220;8.782;2022-07-29T00:23:37;46.33;;;27.30;;
9518;SDS011;4797;50.220;8.782;2022-07-29T00:26:05;42.87;;;25.43;;
9518;SDS011;4797;50.220;8.782;2022-07-29T00:28:35;46.47;;;25.77;;
9518;SDS011;4797;50.220;8.782;2022-07-29T00:31:03;48.03;;;25.77;;
9518;SDS011;4797;50.220;8.782;2022-07-29T00:33:32;45.37;;;25.70;;
9518;SDS011;4797;50.220;8.782;2022-07-29T00:36:00;49.63;;;26.17;;
9518;SDS011;4797;50.220;8.782;2022-07-29T00:38:27;46.03;;;26.23;;
9518;SDS011;4797;50.220;8.782;2022-07-29T00:40:55;57.93;;;28.00;;
9518;SDS011;4797;50.220;8.782;2022-07-29T00:43:24;50.87;;;27.43;;
9518;SDS011;4797;50.220;8.782;2022-07-29T00:45:54;46.17;;;28.00;;
9518;SDS011;4797;50.220;8.782;2022-07-29T00:48:22;73.67;;;43.37;;
9518;SDS011;4797;50.220;8.782;2022-07-29T00:50:52;46.03;;;29.43;;
9518;SDS011;4797;50.220;8.782;2022-07-29T00:53:20;72.47;;;42.10;;
9518;SDS011;4797;50.220;8.782;2022-07-29T00:55:49;72.57;;;41.53;;
9518;SDS011;4797;50.220;8.782;2022-07-29T00:58:17;58.63;;;32.97;;
9518;SDS011;4797;50.220;8.782;2022-07-29T01:00:45;53.10;;;31.87;;
9518;SDS011;4797;50.220;8.782;2022-07-29T01:03:15;60.93;;;31.07;;
9518;SDS011;4797;50.220;8.782;2022-07-29T01:05:44;72.83;;;41.87;;
9518;SDS011;4797;50.220;8.782;2022-07-29T01:08:17;52.87;;;32.30;;
9518;SDS011;4797;50.220;8.782;2022-07-29T01:10:45;50.10;;;31.93;;
9518;SDS011;4797;50.220;8.782;2022-07-29T01:13:14;70.13;;;41.27;;
9518;SDS011;4797;50.220;8.782;2022-07-29T01:15:43;68.87;;;41.43;;
9518;SDS011;4797;50.220;8.782;2022-07-29T01:18:16;71.80;;;43.37;;
9518;SDS011;4797;50.220;8.782;2022-07-29T01:20:55;70.40;;;42.30;;
9518;SDS011;4797;50.220;8.782;2022-07-29T01:23:38;71.27;;;42.07;;
9518;SDS011;4797;50.220;8.782;2022-07-29T01:29:00;70.53;;;42.03;;
9518;SDS011;4797;50.220;8.782;2022-07-29T01:31:35;70.43;;;42.67;;
9518;SDS011;4797;50.220;8.782;2022-07-29T01:34:25;74.60;;;42.90;;
9518;SDS011;4797;50.220;8.782;2022-07-29T01:36:57;73.20;;;42.87;;
9518;SDS011;4797;50.220;8.782;2022-07-29T01:39:30;71.83;;;42.27;;
9518;SDS011;4797;50.220;8.782;2022-07-29T01:42:01;72.73;;;43.63;;
9518;SDS011;4797;50.220;8.782;2022-07-29T01:44:35;74.17;;;43.33;;
9518;SDS011;4797;50.220;8.782;2022-07-29T01:47:08;74.97;;;43.67;;
9518;SDS011;4797;50.220;8.782;2022-07-29T01:49:39;69.87;;;42.57;;
9518;SDS011;4797;50.220;8.782;2022-07-29T01:52:11;73.40;;;43.57;;
9518;SDS011;4797;50.220;8.782;2022-07-29T01:54:45;72.97;;;43.47;;
9518;SDS011;4797;50.220;8.782;2022-07-29T01:57:15;73.17;;;44.03;;
9518;SDS011;4797;50.220;8.782;2022-07-29T01:59:46;73.80;;;45.57;;
9518;SDS011;4797;50.220;8.782;2022-07-29T02:02:15;74.77;;;42.80;;
9518;SDS011;4797;50.220;8.782;2022-07-29T02:04:44;70.50;;;42.47;;
9518;SDS011;4797;50.220;8.782;2022-07-29T02:07:15;74.10;;;43.17;;
9518;SDS011;4797;50.220;8.782;2022-07-29T02:09:44;74.80;;;45.33;;
9518;SDS011;4797;50.220;8.782;2022-07-29T02:12:13;73.73;;;44.27;;
9518;SDS011;4797;50.220;8.782;2022-07-29T02:14:43;72.43;;;44.47;;
9518;SDS011;4797;50.220;8.782;2022-07-29T02:17:14;76.07;;;44.90;;
9518;SDS011;4797;50.220;8.782;2022-07-29T02:19:43;74.40;;;44.30;;
9518;SDS011;4797;50.220;8.782;2022-07-29T02:22:12;73.97;;;44.77;;
9518;SDS011;4797;50.220;8.782;2022-07-29T02:24:41;76.10;;;47.07;;
9518;SDS011;4797;50.220;8.782;2022-07-29T02:27:09;74.13;;;45.40;;
9518;SDS011;4797;50.220;8.782;2022-07-29T02:29:38;77.80;;;45.53;;
9518;SDS011;4797;50.220;8.782;2022-07-29T02:32:07;77.50;;;45.33;;
9518;SDS011;4797;50.220;8.782;2022-07-29T02:34:40;74.63;;;46.17;;
9518;SDS011;4797;50.220;8.782;2022-07-29T02:37:09;76.70;;;45.47;;
9518;SDS011;4797;50.220;8.782;2022-07-29T02:39:38;78.27;;;46.67;;
9518;SDS011;4797;50.220;8.782;2022-07-29T02:42:07;75.43;;;45.43;;
9518;SDS011;4797;50.220;8.782;2022-07-29T02:44:36;81.47;;;49.57;;
9518;SDS011;4797;50.220;8.782;2022-07-29T02:47:07;77.40;;;47.07;;
9518;SDS011;4797;50.220;8.782;2022-07-29T02:49:40;71.80;;;44.30;;
9518;SDS011;4797;50.220;8.782;2022-07-29T02:52:10;75.87;;;46.63;;
9518;SDS011;4797;50.220;8.782;2022-07-29T02:54:44;80.07;;;45.00;;
9518;SDS011;4797;50.220;8.782;2022-07-29T02:57:14;81.77;;;49.07;;
9518;SDS011;4797;50.220;8.782;2022-07-29T02:59:47;80.27;;;48.50;;
9518;SDS011;4797;50.220;8.782;2022-07-29T03:02:15;76.53;;;46.37;;
9518;SDS011;4797;50.220;8.782;2022-07-29T03:04:46;74.90;;;45.63;;
9518;SDS011;4797;50.220;8.782;2022-07-29T03:07:15;80.90;;;47.23;;
9518;SDS011;4797;50.220;8.782;2022-07-29T03:09:46;76.83;;;46.93;;
9518;SDS011;4797;50.220;8.782;2022-07-29T03:12:14;81.80;;;47.17;;
9518;SDS011;4797;50.220;8.782;2022-07-29T03:14:43;77.83;;;47.00;;
9518;SDS011;4797;50.220;8.782;2022-07-29T03:17:12;77.97;;;48.33;;
9518;SDS011;4797;50.220;8.782;2022-07-29T03:19:41;76.93;;;46.57;;
9518;SDS011;4797;50.220;8.782;2022-07-29T03:22:11;81.57;;;49.20;;
9518;SDS011;4797;50.220;8.782;2022-07-29T03:24:39;76.97;;;47.17;;
9518;SDS011;4797;50.220;8.782;2022-07-29T03:27:08;78.10;;;48.20;;
9518;SDS011;4797;50.220;8.782;2022-07-29T03:29:36;88.87;;;48.13;;
9518;SDS011;4797;50.220;8.782;2022-07-29T03:32:05;80.07;;;46.23;;
9518;SDS011;4797;50.220;8.782;2022-07-29T03:34:34;80.93;;;47.07;;
9518;SDS011;4797;50.220;8.782;2022-07-29T03:37:02;78.63;;;48.03;;
9518;SDS011;4797;50.220;8.782;2022-07-29T03:39:35;76.80;;;46.60;;
9518;SDS011;4797;50.220;8.782;2022-07-29T03:42:04;81.93;;;48.03;;
9518;SDS011;4797;50.220;8.782;2022-07-29T03:44:33;78.20;;;47.50;;
9518;SDS011;4797;50.220;8.782;2022-07-29T03:47:02;78.03;;;49.37;;
9518;SDS011;4797;50.220;8.782;2022-07-29T03:49:32;78.07;;;46.60;;
9518;SDS011;4797;50.220;8.782;2022-07-29T03:52:03;85.47;;;47.60;;
9518;SDS011;4797;50.220;8.782;2022-07-29T03:54:31;82.23;;;47.03;;
9518;SDS011;4797;50.220;8.782;2022-07-29T03:57:03;75.90;;;46.30;;
9518;SDS011;4797;50.220;8.782;2022-07-29T03:59:33;83.17;;;47.80;;
9518;SDS011;4797;50.220;8.782;2022-07-29T04:02:02;74.93;;;45.43;;
9518;SDS011;4797;50.220;8.782;2022-07-29T04:04:32;81.73;;;47.27;;
9518;SDS011;4797;50.220;8.782;2022-07-29T04:07:00;77.80;;;48.47;;
9518;SDS011;4797;50.220;8.782;2022-07-29T04:09:28;75.70;;;45.13;;
9518;SDS011;4797;50.220;8.782;2022-07-29T04:11:57;83.57;;;49.73;;
9518;SDS011;4797;50.220;8.782;2022-07-29T04:14:30;74.93;;;44.07;;
9518;SDS011;4797;50.220;8.782;2022-07-29T04:16:59;85.53;;;48.47;;
9518;SDS011;4797;50.220;8.782;2022-07-29T04:19:27;79.70;;;45.00;;
9518;SDS011;4797;50.220;8.782;2022-07-29T04:21:55;80.40;;;48.43;;
9518;SDS011;4797;50.220;8.782;2022-07-29T04:24:24;82.07;;;49.73;;
9518;SDS011;4797;50.220;8.782;2022-07-29T04:26:52;78.13;;;47.60;;
9518;SDS011;4797;50.220;8.782;2022-07-29T04:29:20;74.90;;;45.27;;
9518;SDS011;4797;50.220;8.782;2022-07-29T04:31:50;78.00;;;47.90;;
9518;SDS011;4797;50.220;8.782;2022-07-29T04:34:18;77.53;;;46.47;;
9518;SDS011;4797;50.220;8.782;2022-07-29T04:36:46;76.50;;;46.17;;
9518;SDS011;4797;50.220;8.782;2022-07-29T04:39:14;89.63;;;46.80;;
9518;SDS011;4797;50.220;8.782;2022-07-29T04:41:48;128.33;;;52.03;;
9518;SDS011;4797;50.220;8.782;2022-07-29T04:44:21;84.53;;;49.23;;
9518;SDS011;4797;50.220;8.782;2022-07-29T04:46:55;80.90;;;50.33;;
9518;SDS011;4797;50.220;8.782;2022-07-29T04:49:24;83.27;;;48.60;;
9518;SDS011;4797;50.220;8.782;2022-07-29T04:51:52;80.53;;;46.87;;
9518;SDS011;4797;50.220;8.782;2022-07-29T04:54:21;84.53;;;50.27;;
9518;SDS011;4797;50.220;8.782;2022-07-29T04:56:50;79.40;;;49.73;;
9518;SDS011;4797;50.220;8.782;2022-07-29T04:59:18;76.90;;;47.10;;
9518;SDS011;4797;50.220;8.782;2022-07-29T05:01:47;79.37;;;46.83;;
9518;SDS011;4797;50.220;8.782;2022-07-29T05:04:16;80.90;;;47.60;;
9518;SDS011;4797;50.220;8.782;2022-07-29T05:06:46;77.57;;;47.33;;
9518;SDS011;4797;50.220;8.782;2022-07-29T05:09:14;76.80;;;45.30;;
9518;SDS011;4797;50.220;8.782;2022-07-29T05:11:42;81.87;;;47.90;;
9518;SDS011;4797;50.220;8.782;2022-07-29T05:14:11;78.87;;;48.70;;
9518;SDS011;4797;50.220;8.782;2022-07-29T05:16:40;82.67;;;47.37;;
9518;SDS011;4797;50.220;8.782;2022-07-29T05:19:09;76.73;;;46.60;;
9518;SDS011;4797;50.220;8.782;2022-07-29T05:21:41;80.27;;;48.53;;
9518;SDS011;4797;50.220;8.782;2022-07-29T05:24:09;79.43;;;47.07;;
9518;SDS011;4797;50.220;8.782;2022-07-29T05:26:39;75.73;;;46.00;;
9518;SDS011;4797;50.220;8.782;2022-07-29T05:29:07;81.03;;;46.63;;
9518;SDS011;4797;50.220;8.782;2022-07-29T05:31:55;80.63;;;49.53;;
9518;SDS011;4797;50.220;8.782;2022-07-29T05:34:25;79.73;;;47.30;;
9518;SDS011;4797;50.220;8.782;2022-07-29T05:36:55;86.73;;;50.73;;
9518;SDS011;4797;50.220;8.782;2022-07-29T05:39:23;80.00;;;48.17;;
9518;SDS011;4797;50.220;8.782;2022-07-29T05:42:11;76.60;;;48.00;;
9518;SDS011;4797;50.220;8.782;2022-07-29T05:44:40;89.27;;;51.60;;
9518;SDS011;4797;50.220;8.782;2022-07-29T05:47:08;81.40;;;49.30;;
9518;SDS011;4797;50.220;8.782;2022-07-29T05:49:37;82.87;;;49.97;;
9518;SDS011;4797;50.220;8.782;2022-07-29T05:52:07;78.07;;;48.20;;
9518;SDS011;4797;50.220;8.782;2022-07-29T05:54:36;87.03;;;52.40;;
9518;SDS011;4797;50.220;8.782;2022-07-29T05:57:04;88.03;;;49.40;;
9518;SDS011;4797;50.220;8.782;2022-07-29T05:59:34;75.73;;;47.07;;
9518;SDS011;4797;50.220;8.782;2022-07-29T06:02:03;87.80;;;51.77;;
9518;SDS011;4797;50.220;8.782;2022-07-29T06:04:31;81.30;;;49.77;;
9518;SDS011;4797;50.220;8.782;2022-07-29T06:07:00;83.17;;;50.30;;
9518;SDS011;4797;50.220;8.782;2022-07-29T06:09:30;80.40;;;48.73;;
9518;SDS011;4797;50.220;8.782;2022-07-29T06:12:01;83.07;;;51.37;;
9518;SDS011;4797;50.220;8.782;2022-07-29T06:14:29;78.83;;;48.63;;
9518;SDS011;4797;50.220;8.782;2022-07-29T06:16:58;85.13;;;49.17;;
9518;SDS011;4797;50.220;8.782;2022-07-29T06:19:27;81.07;;;48.43;;
9518;SDS011;4797;50.220;8.782;2022-07-29T06:21:55;88.90;;;55.70;;
9518;SDS011;4797;50.220;8.782;2022-07-29T06:24:24;77.87;;;47.50;;
9518;SDS011;4797;50.220;8.782;2022-07-29T06:27:03;78.67;;;47.00;;
9518;SDS011;4797;50.220;8.782;2022-07-29T06:29:32;78.53;;;47.67;;
9518;SDS011;4797;50.220;8.782;2022-07-29T06:32:00;80.20;;;49.03;;
9518;SDS011;4797;50.220;8.782;2022-07-29T06:35:14;75.63;;;46.43;;
9518;SDS011;4797;50.220;8.782;2022-07-29T06:38:03;81.57;;;47.17;;
9518;SDS011;4797;50.220;8.782;2022-07-29T06:40:52;83.23;;;49.67;;
9518;SDS011;4797;50.220;8.782;2022-07-29T06:46:53;84.33;;;51.67;;
9518;SDS011;4797;50.220;8.782;2022-07-29T06:50:00;86.53;;;52.03;;
9518;SDS011;4797;50.220;8.782;2022-07-29T06:52:38;77.63;;;47.17;;
9518;SDS011;4797;50.220;8.782;2022-07-29T06:55:09;87.83;;;52.97;;
9518;SDS011;4797;50.220;8.782;2022-07-29T06:57:50;83.77;;;49.87;;
9518;SDS011;4797;50.220;8.782;2022-07-29T07:00:19;85.23;;;51.30;;
9518;SDS011;4797;50.220;8.782;2022-07-29T07:02:49;90.50;;;50.83;;
9518;SDS011;4797;50.220;8.782;2022-07-29T07:05:23;84.30;;;50.53;;
9518;SDS011;4797;50.220;8.782;2022-07-29T07:07:54;90.93;;;54.90;;
9518;SDS011;4797;50.220;8.782;2022-07-29T07:10:22;91.07;;;55.70;;
9518;SDS011;4797;50.220;8.782;2022-07-29T07:12:51;89.17;;;55.53;;
9518;SDS011;4797;50.220;8.782;2022-07-29T07:15:19;82.17;;;49.67;;
9518;SDS011;4797;50.220;8.782;2022-07-29T07:18:05;88.70;;;54.13;;
9518;SDS011;4797;50.220;8.782;2022-07-29T07:20:34;83.27;;;51.27;;
9518;SDS011;4797;50.220;8.782;2022-07-29T07:23:02;84.53;;;53.80;;
9518;SDS011;4797;50.220;8.782;2022-07-29T07:25:31;85.37;;;52.20;;
9518;SDS011;4797;50.220;8.782;2022-07-29T07:28:00;88.57;;;54.43;;
9518;SDS011;4797;50.220;8.782;2022-07-29T07:30:28;88.70;;;52.00;;
9518;SDS011;4797;50.220;8.782;2022-07-29T07:32:57;90.53;;;60.27;;
9518;SDS011;4797;50.220;8.782;2022-07-29T07:35:26;83.57;;;52.80;;
9518;SDS011;4797;50.220;8.782;2022-07-29T07:37:55;92.53;;;55.77;;
9518;SDS011;4797;50.220;8.782;2022-07-29T07:40:23;94.60;;;52.90;;
9518;SDS011;4797;50.220;8.782;2022-07-29T07:42:52;88.13;;;53.40;;
9518;SDS011;4797;50.220;8.782;2022-07-29T07:45:20;85.10;;;52.60;;
9518;SDS011;4797;50.220;8.782;2022-07-29T07:47:48;88.20;;;53.70;;
9518;SDS011;4797;50.220;8.782;2022-07-29T07:50:17;87.07;;;54.67;;
9518;SDS011;4797;50.220;8.782;2022-07-29T07:52:48;89.03;;;55.37;;
9518;SDS011;4797;50.220;8.782;2022-07-29T07:55:16;88.50;;;54.50;;
9518;SDS011;4797;50.220;8.782;2022-07-29T07:57:45;88.73;;;55.30;;
9518;SDS011;4797;50.220;8.782;2022-07-29T08:00:14;93.33;;;58.20;;
9518;SDS011;4797;50.220;8.782;2022-07-29T08:02:42;90.00;;;54.60;;
9518;SDS011;4797;50.220;8.782;2022-07-29T08:05:12;89.43;;;54.00;;
9518;SDS011;4797;50.220;8.782;2022-07-29T08:07:44;87.60;;;51.93;;
9518;SDS011;4797;50.220;8.782;2022-07-29T08:10:14;98.20;;;61.37;;
9518;SDS011;4797;50.220;8.782;2022-07-29T08:13:02;97.17;;;60.47;;
9518;SDS011;4797;50.220;8.782;2022-07-29T08:15:31;86.57;;;52.70;;
9518;SDS011;4797;50.220;8.782;2022-07-29T08:18:00;89.37;;;55.03;;
9518;SDS011;4797;50.220;8.782;2022-07-29T08:20:34;89.77;;;53.77;;
9518;SDS011;4797;50.220;8.782;2022-07-29T08:23:05;87.33;;;51.50;;
9518;SDS011;4797;50.220;8.782;2022-07-29T08:25:49;89.00;;;52.20;;
9518;SDS011;4797;50.220;8.782;2022-07-29T08:28:26;88.60;;;52.17;;
9518;SDS011;4797;50.220;8.782;2022-07-29T08:30:56;85.00;;;51.73;;
9518;SDS011;4797;50.220;8.782;2022-07-29T08:33:42;91.17;;;54.27;;
9518;SDS011;4797;50.220;8.782;2022-07-29T08:36:11;88.87;;;52.50;;
9518;SDS011;4797;50.220;8.782;2022-07-29T08:38:42;86.60;;;52.67;;
9518;SDS011;4797;50.220;8.782;2022-07-29T08:41:12;98.53;;;58.10;;
9518;SDS011;4797;50.220;8.782;2022-07-29T08:43:48;88.40;;;53.00;;
9518;SDS011;4797;50.220;8.782;2022-07-29T08:46:24;105.27;;;61.80;;
9518;SDS011;4797;50.220;8.782;2022-07-29T08:48:54;89.33;;;52.83;;
9518;SDS011;4797;50.220;8.782;2022-07-29T08:51:30;90.03;;;53.70;;
9518;SDS011;4797;50.220;8.782;2022-07-29T08:54:20;107.30;;;63.47;;
9518;SDS011;4797;50.220;8.782;2022-07-29T08:56:51;101.07;;;60.00;;
9518;SDS011;4797;50.220;8.782;2022-07-29T08:59:29;89.77;;;53.73;;
9518;SDS011;4797;50.220;8.782;2022-07-29T09:02:08;101.60;;;61.47;;
9518;SDS011;4797;50.220;8.782;2022-07-29T09:04:39;87.67;;;53.50;;
9518;SDS011;4797;50.220;8.782;2022-07-29T09:07:08;89.90;;;52.93;;
9518;SDS011;4797;50.220;8.782;2022-07-29T09:09:39;89.27;;;54.20;;
9518;SDS011;4797;50.220;8.782;2022-07-29T09:12:10;111.80;;;66.50;;
9518;SDS011;4797;50.220;8.782;2022-07-29T09:17:59;88.03;;;53.23;;
9518;SDS011;4797;50.220;8.782;2022-07-29T09:20:55;87.23;;;53.63;;
9518;SDS011;4797;50.220;8.782;2022-07-29T09:23:43;94.27;;;57.57;;
9518;SDS011;4797;50.220;8.782;2022-07-29T09:26:27;92.17;;;54.80;;
9518;SDS011;4797;50.220;8.782;2022-07-29T09:28:58;95.33;;;56.40;;
9518;SDS011;4797;50.220;8.782;2022-07-29T09:31:31;91.93;;;55.07;;
9518;SDS011;4797;50.220;8.782;2022-07-29T09:34:01;90.27;;;54.07;;
9518;SDS011;4797;50.220;8.782;2022-07-29T09:36:37;93.00;;;54.43;;
9518;SDS011;4797;50.220;8.782;2022-07-29T09:39:06;93.27;;;54.33;;
9518;SDS011;4797;50.220;8.782;2022-07-29T09:41:44;101.57;;;60.37;;
9518;SDS011;4797;50.220;8.782;2022-07-29T09:44:15;93.33;;;56.03;;
9518;SDS011;4797;50.220;8.782;2022-07-29T09:46:52;95.87;;;56.90;;
9518;SDS011;4797;50.220;8.782;2022-07-29T09:49:21;95.07;;;56.13;;
9518;SDS011;4797;50.220;8.782;2022-07-29T09:51:58;89.93;;;54.27;;
9518;SDS011;4797;50.220;8.782;2022-07-29T09:54:29;91.97;;;54.73;;
9518;SDS011;4797;50.220;8.782;2022-07-29T09:57:03;93.40;;;56.00;;
9518;SDS011;4797;50.220;8.782;2022-07-29T09:59:33;95.67;;;56.77;;
9518;SDS011;4797;50.220;8.782;2022-07-29T10:02:15;93.37;;;54.57;;
9518;SDS011;4797;50.220;8.782;2022-07-29T10:04:49;92.57;;;56.23;;
9518;SDS011;4797;50.220;8.782;2022-07-29T10:07:17;95.23;;;58.07;;
9518;SDS011;4797;50.220;8.782;2022-07-29T10:09:49;92.33;;;56.10;;
9518;SDS011;4797;50.220;8.782;2022-07-29T10:12:17;93.57;;;56.33;;
9518;SDS011;4797;50.220;8.782;2022-07-29T10:14:47;93.40;;;55.53;;
9518;SDS011;4797;50.220;8.782;2022-07-29T10:17:16;99.77;;;59.20;;
9518;SDS011;4797;50.220;8.782;2022-07-29T10:19:45;97.93;;;58.73;;
9518;SDS011;4797;50.220;8.782;2022-07-29T10:22:13;94.73;;;56.47;;
9518;SDS011;4797;50.220;8.782;2022-07-29T10:25:02;95.57;;;55.67;;
9518;SDS011;4797;50.220;8.782;2022-07-29T10:27:31;93.33;;;56.47;;
9518;SDS011;4797;50.220;8.782;2022-07-29T10:30:00;97.67;;;56.17;;
9518;SDS011;4797;50.220;8.782;2022-07-29T10:32:35;105.00;;;57.80;;
9518;SDS011;4797;50.220;8.782;2022-07-29T10:35:12;97.27;;;58.80;;
9518;SDS011;4797;50.220;8.782;2022-07-29T10:37:46;92.57;;;55.47;;
9518;SDS011;4797;50.220;8.782;2022-07-29T10:40:22;96.33;;;58.67;;
9518;SDS011;4797;50.220;8.782;2022-07-29T10:43:14;98.90;;;57.30;;
9518;SDS011;4797;50.220;8.782;2022-07-29T10:45:59;95.67;;;56.47;;
9518;SDS011;4797;50.220;8.782;2022-07-29T10:48:27;94.50;;;56.83;;
9518;SDS011;4797;50.220;8.782;2022-07-29T10:50:57;98.37;;;57.07;;
9518;SDS011;4797;50.220;8.782;2022-07-29T10:56:25;95.67;;;57.60;;
9518;SDS011;4797;50.220;8.782;2022-07-29T11:01:41;93.17;;;56.07;;
9518;SDS011;4797;50.220;8.782;2022-07-29T11:07:15;94.43;;;55.80;;
9518;SDS011;4797;50.220;8.782;2022-07-29T11:09:43;99.63;;;58.53;;
9518;SDS011;4797;50.220;8.782;2022-07-29T11:14:58;98.93;;;59.47;;
9518;SDS011;4797;50.220;8.782;2022-07-29T11:17:30;95.20;;;56.80;;
9518;SDS011;4797;50.220;8.782;2022-07-29T11:20:31;95.17;;;57.30;;
9518;SDS011;4797;50.220;8.782;2022-07-29T11:23:17;95.60;;;55.57;;
9518;SDS011;4797;50.220;8.782;2022-07-29T11:25:54;94.10;;;56.87;;
9518;SDS011;4797;50.220;8.782;2022-07-29T11:28:48;94.23;;;57.60;;
9518;SDS011;4797;50.220;8.782;2022-07-29T11:37:20;94.43;;;58.40;;
9518;SDS011;4797;50.220;8.782;2022-07-29T11:42:47;95.13;;;57.77;;
9518;SDS011;4797;50.220;8.782;2022-07-29T11:45:24;96.67;;;57.20;;
9518;SDS011;4797;50.220;8.782;2022-07-29T11:48:14;94.40;;;57.30;;
9518;SDS011;4797;50.220;8.782;2022-07-29T11:51:04;96.20;;;57.00;;
9518;SDS011;4797;50.220;8.782;2022-07-29T11:53:39;97.63;;;56.97;;
9518;SDS011;4797;50.220;8.782;2022-07-29T11:56:09;98.87;;;57.13;;
9518;SDS011;4797;50.220;8.782;2022-07-29T11:58:42;101.80;;;59.10;;
9518;SDS011;4797;50.220;8.782;2022-07-29T12:01:12;99.37;;;58.77;;
9518;SDS011;4797;50.220;8.782;2022-07-29T12:03:41;99.20;;;58.90;;
9518;SDS011;4797;50.220;8.782;2022-07-29T12:06:13;98.80;;;58.27;;
9518;SDS011;4797;50.220;8.782;2022-07-29T12:08:45;98.53;;;57.77;;
9518;SDS011;4797;50.220;8.782;2022-07-29T12:11:16;94.63;;;57.37;;
9518;SDS011;4797;50.220;8.782;2022-07-29T12:13:47;98.37;;;59.67;;
9518;SDS011;4797;50.220;8.782;2022-07-29T12:16:16;96.83;;;56.57;;
9518;SDS011;4797;50.220;8.782;2022-07-29T12:18:58;94.63;;;56.63;;
9518;SDS011;4797;50.220;8.782;2022-07-29T12:21:28;96.07;;;59.23;;
9518;SDS011;4797;50.220;8.782;2022-07-29T12:23:58;96.73;;;58.00;;
9518;SDS011;4797;50.220;8.782;2022-07-29T12:26:34;98.10;;;58.70;;
9518;SDS011;4797;50.220;8.782;2022-07-29T12:29:05;98.87;;;59.83;;
9518;SDS011;4797;50.220;8.782;2022-07-29T12:31:40;105.30;;;62.83;;
9518;SDS011;4797;50.220;8.782;2022-07-29T12:34:10;105.37;;;63.33;;
9518;SDS011;4797;50.220;8.782;2022-07-29T12:36:39;93.27;;;56.67;;
9518;SDS011;4797;50.220;8.782;2022-07-29T12:39:10;94.10;;;57.10;;
9518;SDS011;4797;50.220;8.782;2022-07-29T12:41:39;103.17;;;64.13;;
9518;SDS011;4797;50.220;8.782;2022-07-29T12:44:07;92.50;;;56.43;;
9518;SDS011;4797;50.220;8.782;2022-07-29T12:46:35;94.10;;;56.53;;
9518;SDS011;4797;50.220;8.782;2022-07-29T12:49:04;96.70;;;58.77;;
9518;SDS011;4797;50.220;8.782;2022-07-29T12:51:34;98.47;;;60.60;;
9518;SDS011;4797;50.220;8.782;2022-07-29T12:54:05;97.50;;;58.67;;
9518;SDS011;4797;50.220;8.782;2022-07-29T12:56:35;97.67;;;59.17;;
9518;SDS011;4797;50.220;8.782;2022-07-29T12:59:13;95.93;;;59.17;;
9518;SDS011;4797;50.220;8.782;2022-07-29T13:01:41;96.17;;;58.60;;
9518;SDS011;4797;50.220;8.782;2022-07-29T13:04:10;97.63;;;60.57;;
9518;SDS011;4797;50.220;8.782;2022-07-29T13:06:39;95.03;;;59.37;;
9518;SDS011;4797;50.220;8.782;2022-07-29T13:09:15;97.07;;;61.23;;
9518;SDS011;4797;50.220;8.782;2022-07-29T13:11:47;99.43;;;60.37;;
9518;SDS011;4797;50.220;8.782;2022-07-29T13:14:29;101.47;;;64.13;;
9518;SDS011;4797;50.220;8.782;2022-07-29T13:17:01;95.97;;;59.57;;
9518;SDS011;4797;50.220;8.782;2022-07-29T13:19:34;98.77;;;61.80;;
9518;SDS011;4797;50.220;8.782;2022-07-29T13:22:03;102.53;;;63.27;;
9518;SDS011;4797;50.220;8.782;2022-07-29T13:24:31;94.40;;;57.67;;
9518;SDS011;4797;50.220;8.782;2022-07-29T13:27:01;103.43;;;62.87;;
9518;SDS011;4797;50.220;8.782;2022-07-29T13:29:31;98.23;;;60.67;;
9518;SDS011;4797;50.220;8.782;2022-07-29T13:31:59;101.83;;;61.97;;
9518;SDS011;4797;50.220;8.782;2022-07-29T13:34:28;100.23;;;61.87;;
9518;SDS011;4797;50.220;8.782;2022-07-29T13:36:57;99.53;;;60.33;;
9518;SDS011;4797;50.220;8.782;2022-07-29T13:39:25;107.40;;;66.23;;
9518;SDS011;4797;50.220;8.782;2022-07-29T13:41:53;101.50;;;62.50;;
9518;SDS011;4797;50.220;8.782;2022-07-29T13:44:24;101.87;;;61.03;;
9518;SDS011;4797;50.220;8.782;2022-07-29T13:46:52;100.00;;;61.13;;
9518;SDS011;4797;50.220;8.782;2022-07-29T13:49:21;104.70;;;65.50;;
9518;SDS011;4797;50.220;8.782;2022-07-29T13:51:49;100.03;;;60.53;;
9518;SDS011;4797;50.220;8.782;2022-07-29T13:54:18;101.33;;;62.70;;
9518;SDS011;4797;50.220;8.782;2022-07-29T13:56:46;102.77;;;64.07;;
9518;SDS011;4797;50.220;8.782;2022-07-29T13:59:15;101.33;;;61.63;;
9518;SDS011;4797;50.220;8.782;2022-07-29T14:01:44;102.13;;;62.53;;
9518;SDS011;4797;50.220;8.782;2022-07-29T14:04:13;100.50;;;61.47;;
9518;SDS011;4797;50.220;8.782;2022-07-29T14:06:41;105.90;;;63.40;;
9518;SDS011;4797;50.220;8.782;2022-07-29T14:09:09;102.63;;;61.63;;
9518;SDS011;4797;50.220;8.782;2022-07-29T14:11:38;98.03;;;58.43;;
9518;SDS011;4797;50.220;8.782;2022-07-29T14:14:06;105.63;;;60.33;;
9518;SDS011;4797;50.220;8.782;2022-07-29T14:16:36;95.80;;;57.90;;
9518;SDS011;4797;50.220;8.782;2022-07-29T14:19:15;106.70;;;59.43;;
9518;SDS011;4797;50.220;8.782;2022-07-29T14:21:44;93.80;;;55.83;;
9518;SDS011;4797;50.220;8.782;2022-07-29T14:24:12;94.07;;;54.27;;
9518;SDS011;4797;50.220;8.782;2022-07-29T14:26:46;88.17;;;52.57;;
9518;SDS011;4797;50.220;8.782;2022-07-29T14:29:15;96.97;;;56.57;;
9518;SDS011;4797;50.220;8.782;2022-07-29T14:31:43;87.67;;;51.63;;
9518;SDS011;4797;50.220;8.782;2022-07-29T14:34:12;87.50;;;52.23;;
9518;SDS011;4797;50.220;8.782;2022-07-29T14:36:42;86.93;;;51.70;;
9518;SDS011;4797;50.220;8.782;2022-07-29T14:39:11;85.73;;;50.20;;
9518;SDS011;4797;50.220;8.782;2022-07-29T14:41:40;83.67;;;50.20;;
9518;SDS011;4797;50.220;8.782;2022-07-29T14:44:08;87.33;;;52.30;;
9518;SDS011;4797;50.220;8.782;2022-07-29T14:46:37;87.27;;;52.13;;
9518;SDS011;4797;50.220;8.782;2022-07-29T14:49:05;81.77;;;48.97;;
9518;SDS011;4797;50.220;8.782;2022-07-29T14:51:35;81.07;;;48.60;;
9518;SDS011;4797;50.220;8.782;2022-07-29T14:54:06;86.67;;;49.57;;
9518;SDS011;4797;50.220;8.782;2022-07-29T14:56:35;98.67;;;53.37;;
9518;SDS011;4797;50.220;8.782;2022-07-29T14:59:12;86.30;;;52.13;;
9518;SDS011;4797;50.220;8.782;2022-07-29T15:01:40;82.70;;;49.63;;
9518;SDS011;4797;50.220;8.782;2022-07-29T15:04:09;87.30;;;51.73;;
9518;SDS011;4797;50.220;8.782;2022-07-29T15:06:37;84.47;;;49.70;;
9518;SDS011;4797;50.220;8.782;2022-07-29T15:09:07;90.47;;;53.40;;
9518;SDS011;4797;50.220;8.782;2022-07-29T15:11:36;89.77;;;53.37;;
9518;SDS011;4797;50.220;8.782;2022-07-29T15:14:05;92.00;;;55.77;;
9518;SDS011;4797;50.220;8.782;2022-07-29T15:16:34;93.27;;;55.23;;
9518;SDS011;4797;50.220;8.782;2022-07-29T15:19:03;90.90;;;54.13;;
9518;SDS011;4797;50.220;8.782;2022-07-29T15:21:31;93.23;;;55.77;;
9518;SDS011;4797;50.220;8.782;2022-07-29T15:24:08;93.00;;;56.03;;
9518;SDS011;4797;50.220;8.782;2022-07-29T15:26:37;93.83;;;56.73;;
9518;SDS011;4797;50.220;8.782;2022-07-29T15:29:05;90.03;;;54.00;;
9518;SDS011;4797;50.220;8.782;2022-07-29T15:31:34;95.70;;;56.73;;
9518;SDS011;4797;50.220;8.782;2022-07-29T15:34:02;95.73;;;56.63;;
9518;SDS011;4797;50.220;8.782;2022-07-29T15:36:31;102.03;;;60.97;;
9518;SDS011;4797;50.220;8.782;2022-07-29T15:39:19;90.40;;;54.70;;
9518;SDS011;4797;50.220;8.782;2022-07-29T15:41:49;99.43;;;59.43;;